sensor_id;sensor_type;location;lat;lon;timestamp;P1;durP1;ratioP1;P2;durP2;ratioP2
295;SDS011;132;48.770;9.200;2024-02-28T00:07:36;33.00;;;17.00;;
295;SDS011;132;48.770;9.200;2024-02-28T00:20:45;31.13;;;16.10;;
295;SDS011;132;48.770;9.200;2024-02-28T00:33:54;29.80;;;15.43;;
295;SDS011;132;48.770;9.200;2024-02-28T00:36:43;29.17;;;16.30;;
295;SDS011;132;48.770;9.200;2024-02-28T00:49:51;31.40;;;15.67;;
295;SDS011;132;48.770;9.200;2024-02-28T01:05:37;29.83;;;16.80;;
295;SDS011;132;48.770;9.200;2024-02-28T01:18:48;31.37;;;15.70;;
295;SDS011;132;48.770;9.200;2024-02-28T01:22:03;27.67;;;15.90;;
295;SDS011;132;48.770;9.200;2024-02-28T01:35:08;37.72;;;18.38;;
295;SDS011;132;48.770;9.200;2024-02-28T01:37:50;34.60;;;18.77;;
295;SDS011;132;48.770;9.200;2024-02-28T01:40:43;35.03;;;19.00;;
295;SDS011;132;48.770;9.200;2024-02-28T01:53:53;34.50;;;18.10;;
295;SDS011;132;48.770;9.200;2024-02-28T02:07:02;35.07;;;17.60;;
295;SDS011;132;48.770;9.200;2024-02-28T02:20:13;34.70;;;17.43;;
295;SDS011;132;48.770;9.200;2024-02-28T02:44:37;34.87;;;19.40;;
295;SDS011;132;48.770;9.200;2024-02-28T03:19:50;33.37;;;18.97;;
295;SDS011;132;48.770;9.200;2024-02-28T03:33:00;33.65;;;17.20;;
295;SDS011;132;48.770;9.200;2024-02-28T03:48:44;35.30;;;17.67;;
295;SDS011;132;48.770;9.200;2024-02-28T04:01:54;33.97;;;17.10;;
295;SDS011;132;48.770;9.200;2024-02-28T04:20:14;31.27;;;16.27;;
295;SDS011;132;48.770;9.200;2024-02-28T04:33:23;35.00;;;17.57;;
295;SDS011;132;48.770;9.200;2024-02-28T04:46:33;31.35;;;16.23;;
295;SDS011;132;48.770;9.200;2024-02-28T04:59:45;35.97;;;17.60;;
295;SDS011;132;48.770;9.200;2024-02-28T05:02:29;33.70;;;17.63;;
295;SDS011;132;48.770;9.200;2024-02-28T05:05:24;36.97;;;17.33;;
295;SDS011;132;48.770;9.200;2024-02-28T05:08:09;31.75;;;17.50;;
295;SDS011;132;48.770;9.200;2024-02-28T05:10:49;32.05;;;17.58;;
295;SDS011;132;48.770;9.200;2024-02-28T05:13:40;33.10;;;18.42;;
295;SDS011;132;48.770;9.200;2024-02-28T05:26:45;31.70;;;16.40;;
295;SDS011;132;48.770;9.200;2024-02-28T05:29:27;29.92;;;16.80;;
295;SDS011;132;48.770;9.200;2024-02-28T05:32:09;31.20;;;17.90;;
295;SDS011;132;48.770;9.200;2024-02-28T05:35:17;36.22;;;18.52;;
295;SDS011;132;48.770;9.200;2024-02-28T05:48:28;35.40;;;18.40;;
295;SDS011;132;48.770;9.200;2024-02-28T05:51:24;33.92;;;18.48;;
295;SDS011;132;48.770;9.200;2024-02-28T06:04:31;33.10;;;17.50;;
295;SDS011;132;48.770;9.200;2024-02-28T06:17:39;36.87;;;18.47;;
295;SDS011;132;48.770;9.200;2024-02-28T06:30:49;37.80;;;19.87;;
295;SDS011;132;48.770;9.200;2024-02-28T06:43:56;34.97;;;17.60;;
295;SDS011;132;48.770;9.200;2024-02-28T06:57:04;32.17;;;15.83;;
295;SDS011;132;48.770;9.200;2024-02-28T07:10:12;34.07;;;18.03;;
295;SDS011;132;48.770;9.200;2024-02-28T07:23:22;33.50;;;18.02;;
295;SDS011;132;48.770;9.200;2024-02-28T07:47:23;32.95;;;19.10;;
295;SDS011;132;48.770;9.200;2024-02-28T08:03:06;41.50;;;20.20;;
295;SDS011;132;48.770;9.200;2024-02-28T08:05:50;33.88;;;18.48;;
295;SDS011;132;48.770;9.200;2024-02-28T08:24:09;34.27;;;20.10;;
295;SDS011;132;48.770;9.200;2024-02-28T08:37:17;38.20;;;20.08;;
295;SDS011;132;48.770;9.200;2024-02-28T08:50:25;42.15;;;20.35;;
295;SDS011;132;48.770;9.200;2024-02-28T08:53:13;40.83;;;21.48;;
295;SDS011;132;48.770;9.200;2024-02-28T08:55:51;46.67;;;20.90;;
295;SDS011;132;48.770;9.200;2024-02-28T08:58:29;42.42;;;20.02;;
295;SDS011;132;48.770;9.200;2024-02-28T09:01:08;37.63;;;19.52;;
295;SDS011;132;48.770;9.200;2024-02-28T09:03:45;35.45;;;18.83;;
295;SDS011;132;48.770;9.200;2024-02-28T09:06:24;34.17;;;18.45;;
295;SDS011;132;48.770;9.200;2024-02-28T09:09:02;35.35;;;19.52;;
295;SDS011;132;48.770;9.200;2024-02-28T09:11:44;34.83;;;20.15;;
295;SDS011;132;48.770;9.200;2024-02-28T09:14:21;36.50;;;19.65;;
295;SDS011;132;48.770;9.200;2024-02-28T09:16:59;38.53;;;20.65;;
295;SDS011;132;48.770;9.200;2024-02-28T09:19:41;37.13;;;19.20;;
295;SDS011;132;48.770;9.200;2024-02-28T09:22:20;31.02;;;17.50;;
295;SDS011;132;48.770;9.200;2024-02-28T09:24:57;38.33;;;20.23;;
295;SDS011;132;48.770;9.200;2024-02-28T09:27:47;34.33;;;18.95;;
295;SDS011;132;48.770;9.200;2024-02-28T09:30:37;36.13;;;20.85;;
295;SDS011;132;48.770;9.200;2024-02-28T09:33:15;38.08;;;19.85;;
295;SDS011;132;48.770;9.200;2024-02-28T09:35:56;34.60;;;18.98;;
295;SDS011;132;48.770;9.200;2024-02-28T09:38:33;35.30;;;18.50;;
295;SDS011;132;48.770;9.200;2024-02-28T09:41:15;34.95;;;18.33;;
295;SDS011;132;48.770;9.200;2024-02-28T09:43:56;35.97;;;18.67;;
295;SDS011;132;48.770;9.200;2024-02-28T09:46:35;34.88;;;19.30;;
295;SDS011;132;48.770;9.200;2024-02-28T09:49:14;36.20;;;19.20;;
295;SDS011;132;48.770;9.200;2024-02-28T09:51:52;28.40;;;17.67;;
295;SDS011;132;48.770;9.200;2024-02-28T09:54:32;32.05;;;17.50;;
295;SDS011;132;48.770;9.200;2024-02-28T09:57:11;30.65;;;16.90;;
295;SDS011;132;48.770;9.200;2024-02-28T09:59:50;35.63;;;18.70;;
295;SDS011;132;48.770;9.200;2024-02-28T10:02:28;32.28;;;18.35;;
295;SDS011;132;48.770;9.200;2024-02-28T10:05:08;31.42;;;18.77;;
295;SDS011;132;48.770;9.200;2024-02-28T10:07:45;29.25;;;16.77;;
295;SDS011;132;48.770;9.200;2024-02-28T10:10:24;30.90;;;16.20;;
295;SDS011;132;48.770;9.200;2024-02-28T10:13:02;28.67;;;17.15;;
295;SDS011;132;48.770;9.200;2024-02-28T10:15:42;29.48;;;16.30;;
295;SDS011;132;48.770;9.200;2024-02-28T10:18:20;28.88;;;16.23;;
295;SDS011;132;48.770;9.200;2024-02-28T10:20:58;28.38;;;16.45;;
295;SDS011;132;48.770;9.200;2024-02-28T10:23:37;31.25;;;15.63;;
295;SDS011;132;48.770;9.200;2024-02-28T10:26:16;24.65;;;14.10;;
295;SDS011;132;48.770;9.200;2024-02-28T10:28:55;32.42;;;14.25;;
295;SDS011;132;48.770;9.200;2024-02-28T10:31:32;30.40;;;16.48;;
295;SDS011;132;48.770;9.200;2024-02-28T10:34:13;28.83;;;15.98;;
295;SDS011;132;48.770;9.200;2024-02-28T10:36:57;26.10;;;15.93;;
295;SDS011;132;48.770;9.200;2024-02-28T10:39:37;31.35;;;17.13;;
295;SDS011;132;48.770;9.200;2024-02-28T10:42:15;25.60;;;16.02;;
295;SDS011;132;48.770;9.200;2024-02-28T10:44:53;24.25;;;14.75;;
295;SDS011;132;48.770;9.200;2024-02-28T10:47:34;29.35;;;16.45;;
295;SDS011;132;48.770;9.200;2024-02-28T10:50:15;32.45;;;16.33;;
295;SDS011;132;48.770;9.200;2024-02-28T10:52:54;28.23;;;15.90;;
295;SDS011;132;48.770;9.200;2024-02-28T10:55:42;25.90;;;15.15;;
295;SDS011;132;48.770;9.200;2024-02-28T10:58:22;27.10;;;15.38;;
295;SDS011;132;48.770;9.200;2024-02-28T11:01:03;27.80;;;16.35;;
295;SDS011;132;48.770;9.200;2024-02-28T11:03:42;28.33;;;16.60;;
295;SDS011;132;48.770;9.200;2024-02-28T11:06:23;30.60;;;17.33;;
295;SDS011;132;48.770;9.200;2024-02-28T11:09:03;28.90;;;14.65;;
295;SDS011;132;48.770;9.200;2024-02-28T11:11:41;29.48;;;16.67;;
295;SDS011;132;48.770;9.200;2024-02-28T11:14:19;31.00;;;15.40;;
295;SDS011;132;48.770;9.200;2024-02-28T11:17:04;25.83;;;15.65;;
295;SDS011;132;48.770;9.200;2024-02-28T11:19:45;27.42;;;15.55;;
295;SDS011;132;48.770;9.200;2024-02-28T11:22:23;32.92;;;16.90;;
295;SDS011;132;48.770;9.200;2024-02-28T11:25:03;27.75;;;15.73;;
295;SDS011;132;48.770;9.200;2024-02-28T11:27:46;27.38;;;15.75;;
295;SDS011;132;48.770;9.200;2024-02-28T11:30:26;27.55;;;16.13;;
295;SDS011;132;48.770;9.200;2024-02-28T11:33:04;35.25;;;18.30;;
295;SDS011;132;48.770;9.200;2024-02-28T11:35:42;26.25;;;15.75;;
295;SDS011;132;48.770;9.200;2024-02-28T11:38:21;30.17;;;17.00;;
295;SDS011;132;48.770;9.200;2024-02-28T11:41:07;26.50;;;15.82;;
295;SDS011;132;48.770;9.200;2024-02-28T11:43:45;28.52;;;16.33;;
295;SDS011;132;48.770;9.200;2024-02-28T11:46:26;28.17;;;16.17;;
295;SDS011;132;48.770;9.200;2024-02-28T11:49:05;37.00;;;19.83;;
295;SDS011;132;48.770;9.200;2024-02-28T11:51:44;32.22;;;16.00;;
295;SDS011;132;48.770;9.200;2024-02-28T11:54:23;30.80;;;17.63;;
295;SDS011;132;48.770;9.200;2024-02-28T11:57:02;30.38;;;16.63;;
295;SDS011;132;48.770;9.200;2024-02-28T11:59:41;32.03;;;17.30;;
295;SDS011;132;48.770;9.200;2024-02-28T12:02:19;32.38;;;17.70;;
295;SDS011;132;48.770;9.200;2024-02-28T12:05:03;30.45;;;17.77;;
295;SDS011;132;48.770;9.200;2024-02-28T12:07:43;33.78;;;18.67;;
295;SDS011;132;48.770;9.200;2024-02-28T12:10:22;35.75;;;19.25;;
295;SDS011;132;48.770;9.200;2024-02-28T12:13:01;33.25;;;17.90;;
295;SDS011;132;48.770;9.200;2024-02-28T12:15:41;33.08;;;17.85;;
295;SDS011;132;48.770;9.200;2024-02-28T12:18:21;30.27;;;17.05;;
295;SDS011;132;48.770;9.200;2024-02-28T12:20:59;34.40;;;18.05;;
295;SDS011;132;48.770;9.200;2024-02-28T12:23:37;37.75;;;19.23;;
295;SDS011;132;48.770;9.200;2024-02-28T12:26:27;31.15;;;17.58;;
295;SDS011;132;48.770;9.200;2024-02-28T12:29:05;39.08;;;19.48;;
295;SDS011;132;48.770;9.200;2024-02-28T12:31:43;34.50;;;18.88;;
295;SDS011;132;48.770;9.200;2024-02-28T12:34:22;33.15;;;18.10;;
295;SDS011;132;48.770;9.200;2024-02-28T12:37:02;34.10;;;18.23;;
295;SDS011;132;48.770;9.200;2024-02-28T12:39:43;33.30;;;18.05;;
295;SDS011;132;48.770;9.200;2024-02-28T12:42:23;33.45;;;18.23;;
295;SDS011;132;48.770;9.200;2024-02-28T12:45:01;32.45;;;17.83;;
295;SDS011;132;48.770;9.200;2024-02-28T12:47:41;36.08;;;18.75;;
295;SDS011;132;48.770;9.200;2024-02-28T12:50:25;30.80;;;17.10;;
295;SDS011;132;48.770;9.200;2024-02-28T12:53:05;33.88;;;17.35;;
295;SDS011;132;48.770;9.200;2024-02-28T12:55:43;32.63;;;16.85;;
295;SDS011;132;48.770;9.200;2024-02-28T12:58:21;34.17;;;18.15;;
295;SDS011;132;48.770;9.200;2024-02-28T13:01:01;34.97;;;18.58;;
295;SDS011;132;48.770;9.200;2024-02-28T13:03:39;32.15;;;18.27;;
295;SDS011;132;48.770;9.200;2024-02-28T13:06:18;33.25;;;18.17;;
295;SDS011;132;48.770;9.200;2024-02-28T13:08:56;29.95;;;16.83;;
295;SDS011;132;48.770;9.200;2024-02-28T13:11:36;33.03;;;17.50;;
295;SDS011;132;48.770;9.200;2024-02-28T13:14:15;36.95;;;18.55;;
295;SDS011;132;48.770;9.200;2024-02-28T13:16:54;39.85;;;19.58;;
295;SDS011;132;48.770;9.200;2024-02-28T13:19:33;36.50;;;18.67;;
295;SDS011;132;48.770;9.200;2024-02-28T13:22:12;33.80;;;18.25;;
295;SDS011;132;48.770;9.200;2024-02-28T13:24:50;34.20;;;17.85;;
295;SDS011;132;48.770;9.200;2024-02-28T13:27:28;31.60;;;17.50;;
295;SDS011;132;48.770;9.200;2024-02-28T13:30:06;34.33;;;18.10;;
295;SDS011;132;48.770;9.200;2024-02-28T13:32:44;36.05;;;18.33;;
295;SDS011;132;48.770;9.200;2024-02-28T13:35:23;35.65;;;18.58;;
295;SDS011;132;48.770;9.200;2024-02-28T13:38:01;33.85;;;18.38;;
295;SDS011;132;48.770;9.200;2024-02-28T13:40:41;31.85;;;17.80;;
295;SDS011;132;48.770;9.200;2024-02-28T13:43:37;36.92;;;18.30;;
295;SDS011;132;48.770;9.200;2024-02-28T13:46:16;38.03;;;19.17;;
295;SDS011;132;48.770;9.200;2024-02-28T13:48:53;32.60;;;17.95;;
295;SDS011;132;48.770;9.200;2024-02-28T13:51:34;33.25;;;18.48;;
295;SDS011;132;48.770;9.200;2024-02-28T13:54:11;30.20;;;17.10;;
295;SDS011;132;48.770;9.200;2024-02-28T13:56:50;41.20;;;19.10;;
295;SDS011;132;48.770;9.200;2024-02-28T13:59:28;36.53;;;19.23;;
295;SDS011;132;48.770;9.200;2024-02-28T14:02:07;36.33;;;18.88;;
295;SDS011;132;48.770;9.200;2024-02-28T14:04:58;40.97;;;19.70;;
295;SDS011;132;48.770;9.200;2024-02-28T14:07:37;34.83;;;17.80;;
295;SDS011;132;48.770;9.200;2024-02-28T14:10:17;34.05;;;17.73;;
295;SDS011;132;48.770;9.200;2024-02-28T14:12:55;35.67;;;18.60;;
295;SDS011;132;48.770;9.200;2024-02-28T14:15:34;33.35;;;17.55;;
295;SDS011;132;48.770;9.200;2024-02-28T14:18:15;35.95;;;18.52;;
295;SDS011;132;48.770;9.200;2024-02-28T14:20:55;36.33;;;18.27;;
295;SDS011;132;48.770;9.200;2024-02-28T14:23:35;35.42;;;18.42;;
295;SDS011;132;48.770;9.200;2024-02-28T14:26:13;34.10;;;18.55;;
295;SDS011;132;48.770;9.200;2024-02-28T14:28:51;35.58;;;19.00;;
295;SDS011;132;48.770;9.200;2024-02-28T14:31:29;40.05;;;19.45;;
295;SDS011;132;48.770;9.200;2024-02-28T14:34:07;37.85;;;19.70;;
295;SDS011;132;48.770;9.200;2024-02-28T14:36:48;36.00;;;18.67;;
295;SDS011;132;48.770;9.200;2024-02-28T14:39:27;34.85;;;18.92;;
295;SDS011;132;48.770;9.200;2024-02-28T14:42:08;34.38;;;19.23;;
295;SDS011;132;48.770;9.200;2024-02-28T14:44:49;38.88;;;18.40;;
295;SDS011;132;48.770;9.200;2024-02-28T14:47:26;31.45;;;18.02;;
295;SDS011;132;48.770;9.200;2024-02-28T14:50:04;34.03;;;18.25;;
295;SDS011;132;48.770;9.200;2024-02-28T14:52:47;35.63;;;17.90;;
295;SDS011;132;48.770;9.200;2024-02-28T14:55:27;34.20;;;17.65;;
295;SDS011;132;48.770;9.200;2024-02-28T14:58:05;31.63;;;17.27;;
295;SDS011;132;48.770;9.200;2024-02-28T15:00:45;40.97;;;18.83;;
295;SDS011;132;48.770;9.200;2024-02-28T15:03:23;37.70;;;19.90;;
295;SDS011;132;48.770;9.200;2024-02-28T15:06:03;36.05;;;19.10;;
295;SDS011;132;48.770;9.200;2024-02-28T15:08:43;40.05;;;19.80;;
295;SDS011;132;48.770;9.200;2024-02-28T15:11:22;34.67;;;18.40;;
295;SDS011;132;48.770;9.200;2024-02-28T15:14:11;34.10;;;17.52;;
295;SDS011;132;48.770;9.200;2024-02-28T15:16:49;35.22;;;18.58;;
295;SDS011;132;48.770;9.200;2024-02-28T15:19:29;36.00;;;19.23;;
295;SDS011;132;48.770;9.200;2024-02-28T15:22:08;36.58;;;18.75;;
295;SDS011;132;48.770;9.200;2024-02-28T15:24:48;33.25;;;17.65;;
295;SDS011;132;48.770;9.200;2024-02-28T15:27:25;39.08;;;18.05;;
295;SDS011;132;48.770;9.200;2024-02-28T15:30:03;33.25;;;18.83;;
295;SDS011;132;48.770;9.200;2024-02-28T15:32:55;39.35;;;19.88;;
295;SDS011;132;48.770;9.200;2024-02-28T15:35:35;38.80;;;18.70;;
295;SDS011;132;48.770;9.200;2024-02-28T15:38:26;37.33;;;19.02;;
295;SDS011;132;48.770;9.200;2024-02-28T15:41:05;40.65;;;20.05;;
295;SDS011;132;48.770;9.200;2024-02-28T15:43:44;39.88;;;19.23;;
295;SDS011;132;48.770;9.200;2024-02-28T15:46:22;37.03;;;19.23;;
295;SDS011;132;48.770;9.200;2024-02-28T15:49:18;36.03;;;19.20;;
295;SDS011;132;48.770;9.200;2024-02-28T15:51:57;35.20;;;18.80;;
295;SDS011;132;48.770;9.200;2024-02-28T15:54:37;41.25;;;21.75;;
295;SDS011;132;48.770;9.200;2024-02-28T15:57:19;35.97;;;18.05;;
295;SDS011;132;48.770;9.200;2024-02-28T15:59:59;36.00;;;19.20;;
295;SDS011;132;48.770;9.200;2024-02-28T16:02:38;39.47;;;19.52;;
295;SDS011;132;48.770;9.200;2024-02-28T16:05:17;36.75;;;18.80;;
295;SDS011;132;48.770;9.200;2024-02-28T16:07:58;37.25;;;18.77;;
295;SDS011;132;48.770;9.200;2024-02-28T16:10:38;37.13;;;18.08;;
295;SDS011;132;48.770;9.200;2024-02-28T16:13:17;33.90;;;17.45;;
295;SDS011;132;48.770;9.200;2024-02-28T16:15:57;37.35;;;18.33;;
295;SDS011;132;48.770;9.200;2024-02-28T16:18:49;33.83;;;17.85;;
295;SDS011;132;48.770;9.200;2024-02-28T16:21:26;36.20;;;17.15;;
295;SDS011;132;48.770;9.200;2024-02-28T16:24:07;36.42;;;19.00;;
295;SDS011;132;48.770;9.200;2024-02-28T16:26:47;37.00;;;18.38;;
295;SDS011;132;48.770;9.200;2024-02-28T16:29:27;38.53;;;19.00;;
295;SDS011;132;48.770;9.200;2024-02-28T16:32:07;36.70;;;18.40;;
295;SDS011;132;48.770;9.200;2024-02-28T16:34:48;33.15;;;16.95;;
295;SDS011;132;48.770;9.200;2024-02-28T16:37:27;29.02;;;16.00;;
295;SDS011;132;48.770;9.200;2024-02-28T16:40:06;32.90;;;16.88;;
295;SDS011;132;48.770;9.200;2024-02-28T16:42:46;31.00;;;17.00;;
295;SDS011;132;48.770;9.200;2024-02-28T16:45:27;32.08;;;15.00;;
295;SDS011;132;48.770;9.200;2024-02-28T16:48:07;32.60;;;16.73;;
295;SDS011;132;48.770;9.200;2024-02-28T16:51:00;29.90;;;15.90;;
295;SDS011;132;48.770;9.200;2024-02-28T16:53:40;36.20;;;16.77;;
295;SDS011;132;48.770;9.200;2024-02-28T16:56:19;32.67;;;16.85;;
295;SDS011;132;48.770;9.200;2024-02-28T16:58:57;31.55;;;16.15;;
295;SDS011;132;48.770;9.200;2024-02-28T17:01:36;32.13;;;16.83;;
295;SDS011;132;48.770;9.200;2024-02-28T17:04:16;30.58;;;16.50;;
295;SDS011;132;48.770;9.200;2024-02-28T17:06:55;30.02;;;16.45;;
295;SDS011;132;48.770;9.200;2024-02-28T17:09:37;37.05;;;17.38;;
295;SDS011;132;48.770;9.200;2024-02-28T17:12:42;34.08;;;16.77;;
295;SDS011;132;48.770;9.200;2024-02-28T17:15:21;37.75;;;18.67;;
295;SDS011;132;48.770;9.200;2024-02-28T17:18:00;40.47;;;18.30;;
295;SDS011;132;48.770;9.200;2024-02-28T17:20:39;32.92;;;18.67;;
295;SDS011;132;48.770;9.200;2024-02-28T17:23:18;34.60;;;17.90;;
295;SDS011;132;48.770;9.200;2024-02-28T17:25:56;33.53;;;18.10;;
295;SDS011;132;48.770;9.200;2024-02-28T17:28:38;36.35;;;17.90;;
295;SDS011;132;48.770;9.200;2024-02-28T17:31:19;35.63;;;18.13;;
295;SDS011;132;48.770;9.200;2024-02-28T17:33:58;38.38;;;18.73;;
295;SDS011;132;48.770;9.200;2024-02-28T17:36:39;38.00;;;19.33;;
295;SDS011;132;48.770;9.200;2024-02-28T17:39:19;34.25;;;17.70;;
295;SDS011;132;48.770;9.200;2024-02-28T17:41:59;36.58;;;17.00;;
295;SDS011;132;48.770;9.200;2024-02-28T17:44:37;33.60;;;17.30;;
295;SDS011;132;48.770;9.200;2024-02-28T17:47:18;34.95;;;17.30;;
295;SDS011;132;48.770;9.200;2024-02-28T17:49:57;35.22;;;17.27;;
295;SDS011;132;48.770;9.200;2024-02-28T17:52:38;37.40;;;17.67;;
295;SDS011;132;48.770;9.200;2024-02-28T17:55:18;32.75;;;17.75;;
295;SDS011;132;48.770;9.200;2024-02-28T17:57:56;38.33;;;18.80;;
295;SDS011;132;48.770;9.200;2024-02-28T18:00:35;38.10;;;18.27;;
295;SDS011;132;48.770;9.200;2024-02-28T18:03:13;37.70;;;19.75;;
295;SDS011;132;48.770;9.200;2024-02-28T18:05:54;33.67;;;17.00;;
295;SDS011;132;48.770;9.200;2024-02-28T18:08:36;35.25;;;18.65;;
295;SDS011;132;48.770;9.200;2024-02-28T18:11:14;34.60;;;17.90;;
295;SDS011;132;48.770;9.200;2024-02-28T18:13:54;33.22;;;17.23;;
295;SDS011;132;48.770;9.200;2024-02-28T18:16:32;36.40;;;18.15;;
295;SDS011;132;48.770;9.200;2024-02-28T18:19:12;38.13;;;19.15;;
295;SDS011;132;48.770;9.200;2024-02-28T18:21:51;32.33;;;17.23;;
295;SDS011;132;48.770;9.200;2024-02-28T18:24:32;31.73;;;16.85;;
295;SDS011;132;48.770;9.200;2024-02-28T18:27:09;41.05;;;19.52;;
295;SDS011;132;48.770;9.200;2024-02-28T18:29:50;37.50;;;19.40;;
295;SDS011;132;48.770;9.200;2024-02-28T18:32:32;36.88;;;18.80;;
295;SDS011;132;48.770;9.200;2024-02-28T18:35:10;38.13;;;19.60;;
295;SDS011;132;48.770;9.200;2024-02-28T18:37:51;39.13;;;19.17;;
295;SDS011;132;48.770;9.200;2024-02-28T18:40:29;38.72;;;18.63;;
295;SDS011;132;48.770;9.200;2024-02-28T18:43:10;34.65;;;17.83;;
295;SDS011;132;48.770;9.200;2024-02-28T18:45:53;38.72;;;20.40;;
295;SDS011;132;48.770;9.200;2024-02-28T18:48:35;36.83;;;18.17;;
295;SDS011;132;48.770;9.200;2024-02-28T18:51:15;39.75;;;19.65;;
295;SDS011;132;48.770;9.200;2024-02-28T18:53:55;38.60;;;18.98;;
295;SDS011;132;48.770;9.200;2024-02-28T18:56:35;35.92;;;17.85;;
295;SDS011;132;48.770;9.200;2024-02-28T18:59:26;37.88;;;18.70;;
295;SDS011;132;48.770;9.200;2024-02-28T19:02:05;35.70;;;18.92;;
295;SDS011;132;48.770;9.200;2024-02-28T19:04:45;36.60;;;18.73;;
295;SDS011;132;48.770;9.200;2024-02-28T19:07:26;41.78;;;20.35;;
295;SDS011;132;48.770;9.200;2024-02-28T19:10:10;41.58;;;21.55;;
295;SDS011;132;48.770;9.200;2024-02-28T19:12:56;39.70;;;21.02;;
295;SDS011;132;48.770;9.200;2024-02-28T19:15:39;38.95;;;19.30;;
295;SDS011;132;48.770;9.200;2024-02-28T19:18:22;39.88;;;19.90;;
295;SDS011;132;48.770;9.200;2024-02-28T19:21:00;35.08;;;18.58;;
295;SDS011;132;48.770;9.200;2024-02-28T19:23:49;40.85;;;20.33;;
295;SDS011;132;48.770;9.200;2024-02-28T19:26:28;37.45;;;18.88;;
295;SDS011;132;48.770;9.200;2024-02-28T19:29:13;40.53;;;19.50;;
295;SDS011;132;48.770;9.200;2024-02-28T19:31:56;37.28;;;19.33;;
295;SDS011;132;48.770;9.200;2024-02-28T19:34:35;44.63;;;20.40;;
295;SDS011;132;48.770;9.200;2024-02-28T19:37:15;34.90;;;17.50;;
295;SDS011;132;48.770;9.200;2024-02-28T19:39:56;37.30;;;18.95;;
295;SDS011;132;48.770;9.200;2024-02-28T19:42:46;37.30;;;19.10;;
295;SDS011;132;48.770;9.200;2024-02-28T19:45:26;36.47;;;18.23;;
295;SDS011;132;48.770;9.200;2024-02-28T19:48:07;42.05;;;19.67;;
295;SDS011;132;48.770;9.200;2024-02-28T19:50:47;37.90;;;18.63;;
295;SDS011;132;48.770;9.200;2024-02-28T19:53:27;34.50;;;18.30;;
295;SDS011;132;48.770;9.200;2024-02-28T19:56:11;35.25;;;18.13;;
295;SDS011;132;48.770;9.200;2024-02-28T19:58:53;37.08;;;19.25;;
295;SDS011;132;48.770;9.200;2024-02-28T20:01:31;36.40;;;17.25;;
295;SDS011;132;48.770;9.200;2024-02-28T20:04:10;41.75;;;19.20;;
295;SDS011;132;48.770;9.200;2024-02-28T20:06:50;35.45;;;17.70;;
295;SDS011;132;48.770;9.200;2024-02-28T20:09:31;35.47;;;18.25;;
295;SDS011;132;48.770;9.200;2024-02-28T20:12:12;38.83;;;19.88;;
295;SDS011;132;48.770;9.200;2024-02-28T20:14:51;36.28;;;18.08;;
295;SDS011;132;48.770;9.200;2024-02-28T20:17:34;38.20;;;18.88;;
295;SDS011;132;48.770;9.200;2024-02-28T20:20:13;40.72;;;19.95;;
295;SDS011;132;48.770;9.200;2024-02-28T20:23:03;38.55;;;19.15;;
295;SDS011;132;48.770;9.200;2024-02-28T20:25:44;33.85;;;17.10;;
295;SDS011;132;48.770;9.200;2024-02-28T20:28:23;38.15;;;19.08;;
295;SDS011;132;48.770;9.200;2024-02-28T20:31:00;37.60;;;19.25;;
295;SDS011;132;48.770;9.200;2024-02-28T20:33:41;37.35;;;18.75;;
295;SDS011;132;48.770;9.200;2024-02-28T20:36:20;41.45;;;19.83;;
295;SDS011;132;48.770;9.200;2024-02-28T20:38:59;41.42;;;19.33;;
295;SDS011;132;48.770;9.200;2024-02-28T20:41:38;40.72;;;21.00;;
295;SDS011;132;48.770;9.200;2024-02-28T20:44:20;40.58;;;20.15;;
295;SDS011;132;48.770;9.200;2024-02-28T20:47:11;40.50;;;19.00;;
295;SDS011;132;48.770;9.200;2024-02-28T20:49:51;45.47;;;23.40;;
295;SDS011;132;48.770;9.200;2024-02-28T20:52:31;44.65;;;21.45;;
295;SDS011;132;48.770;9.200;2024-02-28T20:55:09;42.90;;;20.70;;
295;SDS011;132;48.770;9.200;2024-02-28T20:57:47;37.10;;;18.98;;
295;SDS011;132;48.770;9.200;2024-02-28T21:00:25;51.85;;;22.85;;
295;SDS011;132;48.770;9.200;2024-02-28T21:03:08;43.78;;;21.20;;
295;SDS011;132;48.770;9.200;2024-02-28T21:05:46;39.80;;;20.13;;
295;SDS011;132;48.770;9.200;2024-02-28T21:08:27;47.35;;;21.73;;
295;SDS011;132;48.770;9.200;2024-02-28T21:11:08;44.92;;;21.58;;
295;SDS011;132;48.770;9.200;2024-02-28T21:13:48;48.42;;;20.73;;
295;SDS011;132;48.770;9.200;2024-02-28T21:16:33;45.28;;;21.33;;
295;SDS011;132;48.770;9.200;2024-02-28T21:19:13;42.55;;;20.45;;
295;SDS011;132;48.770;9.200;2024-02-28T21:22:04;40.15;;;20.02;;
295;SDS011;132;48.770;9.200;2024-02-28T21:24:41;48.30;;;22.33;;
295;SDS011;132;48.770;9.200;2024-02-28T21:27:19;44.40;;;20.30;;
295;SDS011;132;48.770;9.200;2024-02-28T21:30:05;43.75;;;20.95;;
295;SDS011;132;48.770;9.200;2024-02-28T21:32:44;48.13;;;20.75;;
295;SDS011;132;48.770;9.200;2024-02-28T21:35:23;51.35;;;22.27;;
295;SDS011;132;48.770;9.200;2024-02-28T21:38:04;48.22;;;21.80;;
295;SDS011;132;48.770;9.200;2024-02-28T21:41:11;50.13;;;21.75;;
295;SDS011;132;48.770;9.200;2024-02-28T21:43:52;48.38;;;22.33;;
295;SDS011;132;48.770;9.200;2024-02-28T21:46:33;46.05;;;21.80;;
295;SDS011;132;48.770;9.200;2024-02-28T21:49:12;47.78;;;23.23;;
295;SDS011;132;48.770;9.200;2024-02-28T21:51:50;52.38;;;23.88;;
295;SDS011;132;48.770;9.200;2024-02-28T21:54:30;45.92;;;22.63;;
295;SDS011;132;48.770;9.200;2024-02-28T21:57:11;52.47;;;22.38;;
295;SDS011;132;48.770;9.200;2024-02-28T22:00:01;48.05;;;21.83;;
295;SDS011;132;48.770;9.200;2024-02-28T22:02:47;49.63;;;22.83;;
295;SDS011;132;48.770;9.200;2024-02-28T22:05:28;52.53;;;23.50;;
295;SDS011;132;48.770;9.200;2024-02-28T22:08:47;52.63;;;24.23;;
295;SDS011;132;48.770;9.200;2024-02-28T22:11:26;53.88;;;25.08;;
295;SDS011;132;48.770;9.200;2024-02-28T22:14:08;54.72;;;24.88;;
295;SDS011;132;48.770;9.200;2024-02-28T22:16:53;60.13;;;25.02;;
295;SDS011;132;48.770;9.200;2024-02-28T22:19:32;64.55;;;26.27;;
295;SDS011;132;48.770;9.200;2024-02-28T22:22:13;55.00;;;24.60;;
295;SDS011;132;48.770;9.200;2024-02-28T22:24:54;51.42;;;22.50;;
295;SDS011;132;48.770;9.200;2024-02-28T22:27:33;52.30;;;24.15;;
295;SDS011;132;48.770;9.200;2024-02-28T22:30:12;56.47;;;24.48;;
295;SDS011;132;48.770;9.200;2024-02-28T22:32:52;60.22;;;25.98;;
295;SDS011;132;48.770;9.200;2024-02-28T22:35:33;59.40;;;27.30;;
295;SDS011;132;48.770;9.200;2024-02-28T22:38:13;59.85;;;25.70;;
295;SDS011;132;48.770;9.200;2024-02-28T22:40:51;60.72;;;25.90;;
295;SDS011;132;48.770;9.200;2024-02-28T22:43:29;53.13;;;24.20;;
295;SDS011;132;48.770;9.200;2024-02-28T22:46:11;59.40;;;27.02;;
295;SDS011;132;48.770;9.200;2024-02-28T22:48:52;59.53;;;24.98;;
295;SDS011;132;48.770;9.200;2024-02-28T22:51:33;57.38;;;26.70;;
295;SDS011;132;48.770;9.200;2024-02-28T22:54:15;57.42;;;26.17;;
295;SDS011;132;48.770;9.200;2024-02-28T22:56:56;61.80;;;27.15;;
295;SDS011;132;48.770;9.200;2024-02-28T22:59:39;63.22;;;26.25;;
295;SDS011;132;48.770;9.200;2024-02-28T23:02:20;59.47;;;25.20;;
295;SDS011;132;48.770;9.200;2024-02-28T23:05:00;56.28;;;25.02;;
295;SDS011;132;48.770;9.200;2024-02-28T23:07:40;59.92;;;26.33;;
295;SDS011;132;48.770;9.200;2024-02-28T23:10:21;58.25;;;26.00;;
295;SDS011;132;48.770;9.200;2024-02-28T23:12:59;65.78;;;28.27;;
295;SDS011;132;48.770;9.200;2024-02-28T23:15:43;59.10;;;26.63;;
295;SDS011;132;48.770;9.200;2024-02-28T23:18:23;61.45;;;26.52;;
295;SDS011;132;48.770;9.200;2024-02-28T23:21:03;60.60;;;24.75;;
295;SDS011;132;48.770;9.200;2024-02-28T23:23:48;63.45;;;27.40;;